sensor_id;sensor_type;location;lat;lon;timestamp;P1;durP1;ratioP1;P2;durP2;ratioP2
13171;SDS011;6651;53.200;10.432;2024-02-21T00:02:22;26.67;;;17.13;;
13171;SDS011;6651;53.200;10.432;2024-02-21T00:04:49;28.40;;;16.95;;
13171;SDS011;6651;53.200;10.432;2024-02-21T00:07:15;27.73;;;16.45;;
13171;SDS011;6651;53.200;10.432;2024-02-21T00:09:41;26.67;;;16.50;;
13171;SDS011;6651;53.200;10.432;2024-02-21T00:12:08;27.05;;;16.60;;
13171;SDS011;6651;53.200;10.432;2024-02-21T00:14:34;27.20;;;16.83;;
13171;SDS011;6651;53.200;10.432;2024-02-21T00:17:00;27.10;;;16.88;;
13171;SDS011;6651;53.200;10.432;2024-02-21T00:19:26;25.05;;;16.58;;
13171;SDS011;6651;53.200;10.432;2024-02-21T00:21:52;29.45;;;17.05;;
13171;SDS011;6651;53.200;10.432;2024-02-21T00:24:18;26.98;;;16.27;;
13171;SDS011;6651;53.200;10.432;2024-02-21T00:26:44;24.27;;;15.95;;
13171;SDS011;6651;53.200;10.432;2024-02-21T00:29:10;28.83;;;16.73;;
13171;SDS011;6651;53.200;10.432;2024-02-21T00:31:36;27.58;;;15.88;;
13171;SDS011;6651;53.200;10.432;2024-02-21T00:34:02;30.25;;;16.05;;
13171;SDS011;6651;53.200;10.432;2024-02-21T00:36:28;28.58;;;15.88;;
13171;SDS011;6651;53.200;10.432;2024-02-21T00:38:54;28.23;;;15.70;;
13171;SDS011;6651;53.200;10.432;2024-02-21T00:41:20;24.63;;;16.33;;
13171;SDS011;6651;53.200;10.432;2024-02-21T00:43:46;25.95;;;17.00;;
13171;SDS011;6651;53.200;10.432;2024-02-21T00:46:13;26.25;;;16.95;;
13171;SDS011;6651;53.200;10.432;2024-02-21T00:48:39;29.77;;;16.15;;
13171;SDS011;6651;53.200;10.432;2024-02-21T00:51:05;24.45;;;16.15;;
13171;SDS011;6651;53.200;10.432;2024-02-21T00:53:31;30.00;;;16.98;;
13171;SDS011;6651;53.200;10.432;2024-02-21T00:55:57;26.83;;;15.38;;
13171;SDS011;6651;53.200;10.432;2024-02-21T00:58:23;27.25;;;16.67;;
13171;SDS011;6651;53.200;10.432;2024-02-21T01:00:49;24.63;;;15.90;;
13171;SDS011;6651;53.200;10.432;2024-02-21T01:03:15;23.98;;;16.17;;
13171;SDS011;6651;53.200;10.432;2024-02-21T01:05:41;26.15;;;16.63;;
13171;SDS011;6651;53.200;10.432;2024-02-21T01:08:07;24.58;;;15.95;;
13171;SDS011;6651;53.200;10.432;2024-02-21T01:10:33;28.83;;;16.42;;
13171;SDS011;6651;53.200;10.432;2024-02-21T01:12:59;25.52;;;16.70;;
13171;SDS011;6651;53.200;10.432;2024-02-21T01:15:25;26.10;;;15.70;;
13171;SDS011;6651;53.200;10.432;2024-02-21T01:17:51;24.20;;;16.42;;
13171;SDS011;6651;53.200;10.432;2024-02-21T01:20:20;24.63;;;15.63;;
13171;SDS011;6651;53.200;10.432;2024-02-21T01:22:46;25.00;;;16.17;;
13171;SDS011;6651;53.200;10.432;2024-02-21T01:25:12;29.15;;;16.25;;
13171;SDS011;6651;53.200;10.432;2024-02-21T01:27:38;25.48;;;17.13;;
13171;SDS011;6651;53.200;10.432;2024-02-21T01:30:04;23.02;;;15.88;;
13171;SDS011;6651;53.200;10.432;2024-02-21T01:32:30;25.00;;;16.27;;
13171;SDS011;6651;53.200;10.432;2024-02-21T01:34:57;26.20;;;17.25;;
13171;SDS011;6651;53.200;10.432;2024-02-21T01:37:23;25.15;;;17.40;;
13171;SDS011;6651;53.200;10.432;2024-02-21T01:39:49;28.70;;;18.60;;
13171;SDS011;6651;53.200;10.432;2024-02-21T01:42:15;29.20;;;18.30;;
13171;SDS011;6651;53.200;10.432;2024-02-21T01:44:41;26.67;;;17.33;;
13171;SDS011;6651;53.200;10.432;2024-02-21T01:47:07;25.77;;;17.60;;
13171;SDS011;6651;53.200;10.432;2024-02-21T01:49:33;25.85;;;17.25;;
13171;SDS011;6651;53.200;10.432;2024-02-21T01:52:00;24.33;;;17.05;;
13171;SDS011;6651;53.200;10.432;2024-02-21T01:54:26;26.15;;;16.25;;
13171;SDS011;6651;53.200;10.432;2024-02-21T01:56:55;29.10;;;18.48;;
13171;SDS011;6651;53.200;10.432;2024-02-21T01:59:21;28.95;;;17.67;;
13171;SDS011;6651;53.200;10.432;2024-02-21T02:01:48;29.30;;;18.63;;
13171;SDS011;6651;53.200;10.432;2024-02-21T02:04:14;26.73;;;18.15;;
13171;SDS011;6651;53.200;10.432;2024-02-21T02:06:40;26.17;;;18.75;;
13171;SDS011;6651;53.200;10.432;2024-02-21T02:09:07;31.38;;;19.17;;
13171;SDS011;6651;53.200;10.432;2024-02-21T02:11:33;33.03;;;19.52;;
13171;SDS011;6651;53.200;10.432;2024-02-21T02:13:59;31.58;;;19.83;;
13171;SDS011;6651;53.200;10.432;2024-02-21T02:16:25;33.70;;;19.30;;
13171;SDS011;6651;53.200;10.432;2024-02-21T02:18:51;32.08;;;19.55;;
13171;SDS011;6651;53.200;10.432;2024-02-21T02:21:27;25.75;;;18.67;;
13171;SDS011;6651;53.200;10.432;2024-02-21T02:23:54;27.17;;;18.77;;
13171;SDS011;6651;53.200;10.432;2024-02-21T02:26:20;29.77;;;19.98;;
13171;SDS011;6651;53.200;10.432;2024-02-21T02:28:46;25.27;;;18.33;;
13171;SDS011;6651;53.200;10.432;2024-02-21T02:31:12;29.33;;;19.40;;
13171;SDS011;6651;53.200;10.432;2024-02-21T02:33:38;31.65;;;19.55;;
13171;SDS011;6651;53.200;10.432;2024-02-21T02:36:04;28.50;;;19.63;;
13171;SDS011;6651;53.200;10.432;2024-02-21T02:38:30;28.95;;;19.63;;
13171;SDS011;6651;53.200;10.432;2024-02-21T02:40:56;28.15;;;19.50;;
13171;SDS011;6651;53.200;10.432;2024-02-21T02:43:22;27.25;;;18.80;;
13171;SDS011;6651;53.200;10.432;2024-02-21T02:45:48;28.50;;;19.15;;
13171;SDS011;6651;53.200;10.432;2024-02-21T02:48:14;31.80;;;19.20;;
13171;SDS011;6651;53.200;10.432;2024-02-21T02:50:41;29.13;;;19.15;;
13171;SDS011;6651;53.200;10.432;2024-02-21T02:53:07;27.88;;;19.80;;
13171;SDS011;6651;53.200;10.432;2024-02-21T02:55:33;27.55;;;19.38;;
13171;SDS011;6651;53.200;10.432;2024-02-21T02:58:00;28.88;;;19.35;;
13171;SDS011;6651;53.200;10.432;2024-02-21T03:00:26;25.25;;;19.08;;
13171;SDS011;6651;53.200;10.432;2024-02-21T03:02:52;29.63;;;19.40;;
13171;SDS011;6651;53.200;10.432;2024-02-21T03:05:19;34.72;;;20.83;;
13171;SDS011;6651;53.200;10.432;2024-02-21T03:07:45;29.45;;;19.75;;
13171;SDS011;6651;53.200;10.432;2024-02-21T03:10:12;30.23;;;20.48;;
13171;SDS011;6651;53.200;10.432;2024-02-21T03:12:38;29.60;;;20.45;;
13171;SDS011;6651;53.200;10.432;2024-02-21T03:15:05;27.73;;;19.88;;
13171;SDS011;6651;53.200;10.432;2024-02-21T03:17:31;32.05;;;20.40;;
13171;SDS011;6651;53.200;10.432;2024-02-21T03:19:59;27.98;;;20.00;;
13171;SDS011;6651;53.200;10.432;2024-02-21T03:22:25;31.52;;;20.85;;
13171;SDS011;6651;53.200;10.432;2024-02-21T03:24:52;32.85;;;20.52;;
13171;SDS011;6651;53.200;10.432;2024-02-21T03:27:18;32.33;;;20.77;;
13171;SDS011;6651;53.200;10.432;2024-02-21T03:29:44;32.17;;;21.20;;
13171;SDS011;6651;53.200;10.432;2024-02-21T03:32:10;30.70;;;19.15;;
13171;SDS011;6651;53.200;10.432;2024-02-21T03:34:36;32.22;;;20.08;;
13171;SDS011;6651;53.200;10.432;2024-02-21T03:37:02;30.42;;;19.50;;
13171;SDS011;6651;53.200;10.432;2024-02-21T03:39:30;29.48;;;20.60;;
13171;SDS011;6651;53.200;10.432;2024-02-21T03:41:57;30.95;;;20.73;;
13171;SDS011;6651;53.200;10.432;2024-02-21T03:44:26;31.63;;;20.00;;
13171;SDS011;6651;53.200;10.432;2024-02-21T03:46:52;32.47;;;20.67;;
13171;SDS011;6651;53.200;10.432;2024-02-21T03:49:18;30.13;;;20.08;;
13171;SDS011;6651;53.200;10.432;2024-02-21T03:51:44;30.17;;;19.77;;
13171;SDS011;6651;53.200;10.432;2024-02-21T03:54:10;29.30;;;18.88;;
13171;SDS011;6651;53.200;10.432;2024-02-21T03:56:37;29.70;;;19.67;;
13171;SDS011;6651;53.200;10.432;2024-02-21T03:59:04;28.35;;;18.75;;
13171;SDS011;6651;53.200;10.432;2024-02-21T04:01:31;29.42;;;18.67;;
13171;SDS011;6651;53.200;10.432;2024-02-21T04:03:57;29.38;;;18.92;;
13171;SDS011;6651;53.200;10.432;2024-02-21T04:06:23;27.90;;;17.95;;
13171;SDS011;6651;53.200;10.432;2024-02-21T04:08:49;30.83;;;18.08;;
13171;SDS011;6651;53.200;10.432;2024-02-21T04:11:15;27.00;;;17.70;;
13171;SDS011;6651;53.200;10.432;2024-02-21T04:13:42;28.48;;;17.40;;
13171;SDS011;6651;53.200;10.432;2024-02-21T04:16:08;25.55;;;18.27;;
13171;SDS011;6651;53.200;10.432;2024-02-21T04:18:34;27.60;;;18.33;;
13171;SDS011;6651;53.200;10.432;2024-02-21T04:21:00;26.98;;;17.60;;
13171;SDS011;6651;53.200;10.432;2024-02-21T04:23:26;26.42;;;17.73;;
13171;SDS011;6651;53.200;10.432;2024-02-21T04:25:52;26.02;;;17.38;;
13171;SDS011;6651;53.200;10.432;2024-02-21T04:28:18;28.88;;;18.00;;
13171;SDS011;6651;53.200;10.432;2024-02-21T04:30:44;27.65;;;18.45;;
13171;SDS011;6651;53.200;10.432;2024-02-21T04:33:10;26.05;;;18.65;;
13171;SDS011;6651;53.200;10.432;2024-02-21T04:35:36;28.40;;;18.90;;
13171;SDS011;6651;53.200;10.432;2024-02-21T04:38:03;26.80;;;19.00;;
13171;SDS011;6651;53.200;10.432;2024-02-21T04:40:29;27.45;;;17.67;;
13171;SDS011;6651;53.200;10.432;2024-02-21T04:42:55;26.92;;;18.15;;
13171;SDS011;6651;53.200;10.432;2024-02-21T04:45:21;29.38;;;18.65;;
13171;SDS011;6651;53.200;10.432;2024-02-21T04:47:47;24.45;;;17.77;;
13171;SDS011;6651;53.200;10.432;2024-02-21T04:50:13;26.42;;;18.98;;
13171;SDS011;6651;53.200;10.432;2024-02-21T04:52:39;25.95;;;18.63;;
13171;SDS011;6651;53.200;10.432;2024-02-21T04:55:05;28.48;;;18.23;;
13171;SDS011;6651;53.200;10.432;2024-02-21T04:57:32;26.13;;;17.90;;
13171;SDS011;6651;53.200;10.432;2024-02-21T04:59:58;25.52;;;17.30;;
13171;SDS011;6651;53.200;10.432;2024-02-21T05:02:24;25.35;;;17.33;;
13171;SDS011;6651;53.200;10.432;2024-02-21T05:04:51;24.85;;;17.88;;
13171;SDS011;6651;53.200;10.432;2024-02-21T05:07:17;24.33;;;18.10;;
13171;SDS011;6651;53.200;10.432;2024-02-21T05:09:44;22.30;;;17.33;;
13171;SDS011;6651;53.200;10.432;2024-02-21T05:12:10;24.13;;;18.08;;
13171;SDS011;6651;53.200;10.432;2024-02-21T05:14:37;24.58;;;17.48;;
13171;SDS011;6651;53.200;10.432;2024-02-21T05:17:03;25.27;;;19.00;;
13171;SDS011;6651;53.200;10.432;2024-02-21T05:19:29;25.02;;;17.38;;
13171;SDS011;6651;53.200;10.432;2024-02-21T05:21:55;24.52;;;17.17;;
13171;SDS011;6651;53.200;10.432;2024-02-21T05:24:21;22.42;;;17.02;;
13171;SDS011;6651;53.200;10.432;2024-02-21T05:26:47;23.27;;;16.70;;
13171;SDS011;6651;53.200;10.432;2024-02-21T05:29:13;24.63;;;17.20;;
13171;SDS011;6651;53.200;10.432;2024-02-21T05:31:54;21.80;;;15.88;;
13171;SDS011;6651;53.200;10.432;2024-02-21T05:34:23;23.92;;;16.80;;
13171;SDS011;6651;53.200;10.432;2024-02-21T05:36:50;23.50;;;16.35;;
13171;SDS011;6651;53.200;10.432;2024-02-21T05:39:17;23.10;;;16.35;;
13171;SDS011;6651;53.200;10.432;2024-02-21T05:41:43;23.17;;;16.40;;
13171;SDS011;6651;53.200;10.432;2024-02-21T05:44:09;22.63;;;16.58;;
13171;SDS011;6651;53.200;10.432;2024-02-21T05:46:35;22.00;;;15.93;;
13171;SDS011;6651;53.200;10.432;2024-02-21T05:49:01;23.80;;;16.30;;
13171;SDS011;6651;53.200;10.432;2024-02-21T05:51:27;22.92;;;15.63;;
13171;SDS011;6651;53.200;10.432;2024-02-21T05:53:53;17.98;;;14.27;;
13171;SDS011;6651;53.200;10.432;2024-02-21T05:56:19;22.40;;;15.13;;
13171;SDS011;6651;53.200;10.432;2024-02-21T05:58:45;17.20;;;13.85;;
13171;SDS011;6651;53.200;10.432;2024-02-21T06:01:11;18.95;;;14.93;;
13171;SDS011;6651;53.200;10.432;2024-02-21T06:03:37;19.15;;;15.48;;
13171;SDS011;6651;53.200;10.432;2024-02-21T06:06:03;19.73;;;14.43;;
13171;SDS011;6651;53.200;10.432;2024-02-21T06:08:30;18.27;;;14.93;;
13171;SDS011;6651;53.200;10.432;2024-02-21T06:10:56;19.30;;;15.07;;
13171;SDS011;6651;53.200;10.432;2024-02-21T06:13:23;19.20;;;15.30;;
13171;SDS011;6651;53.200;10.432;2024-02-21T06:15:49;20.77;;;14.98;;
13171;SDS011;6651;53.200;10.432;2024-02-21T06:18:16;19.35;;;14.73;;
13171;SDS011;6651;53.200;10.432;2024-02-21T06:20:42;20.25;;;14.55;;
13171;SDS011;6651;53.200;10.432;2024-02-21T06:23:08;20.25;;;14.95;;
13171;SDS011;6651;53.200;10.432;2024-02-21T06:25:34;18.85;;;13.32;;
13171;SDS011;6651;53.200;10.432;2024-02-21T06:28:01;20.70;;;14.45;;
13171;SDS011;6651;53.200;10.432;2024-02-21T06:30:27;18.65;;;13.60;;
13171;SDS011;6651;53.200;10.432;2024-02-21T06:32:53;18.73;;;13.43;;
13171;SDS011;6651;53.200;10.432;2024-02-21T06:35:21;16.70;;;13.32;;
13171;SDS011;6651;53.200;10.432;2024-02-21T06:37:49;18.15;;;14.00;;
13171;SDS011;6651;53.200;10.432;2024-02-21T06:40:16;20.98;;;13.05;;
13171;SDS011;6651;53.200;10.432;2024-02-21T06:42:42;16.65;;;12.43;;
13171;SDS011;6651;53.200;10.432;2024-02-21T06:45:08;16.77;;;13.05;;
13171;SDS011;6651;53.200;10.432;2024-02-21T06:47:34;15.90;;;12.60;;
13171;SDS011;6651;53.200;10.432;2024-02-21T06:50:00;16.23;;;12.10;;
13171;SDS011;6651;53.200;10.432;2024-02-21T06:52:26;16.88;;;13.23;;
13171;SDS011;6651;53.200;10.432;2024-02-21T06:54:53;16.95;;;12.98;;
13171;SDS011;6651;53.200;10.432;2024-02-21T06:57:18;15.55;;;12.95;;
13171;SDS011;6651;53.200;10.432;2024-02-21T06:59:44;15.73;;;13.05;;
13171;SDS011;6651;53.200;10.432;2024-02-21T07:02:10;17.98;;;13.18;;
13171;SDS011;6651;53.200;10.432;2024-02-21T07:04:37;15.68;;;12.20;;
13171;SDS011;6651;53.200;10.432;2024-02-21T07:07:03;14.57;;;12.18;;
13171;SDS011;6651;53.200;10.432;2024-02-21T07:09:29;14.85;;;11.52;;
13171;SDS011;6651;53.200;10.432;2024-02-21T07:11:57;13.57;;;11.30;;
13171;SDS011;6651;53.200;10.432;2024-02-21T07:14:23;16.60;;;11.68;;
13171;SDS011;6651;53.200;10.432;2024-02-21T07:16:49;12.88;;;11.20;;
13171;SDS011;6651;53.200;10.432;2024-02-21T07:19:15;13.70;;;11.38;;
13171;SDS011;6651;53.200;10.432;2024-02-21T07:21:41;12.82;;;11.27;;
13171;SDS011;6651;53.200;10.432;2024-02-21T07:24:07;13.00;;;10.50;;
13171;SDS011;6651;53.200;10.432;2024-02-21T07:26:33;12.82;;;10.93;;
13171;SDS011;6651;53.200;10.432;2024-02-21T07:28:59;13.82;;;10.38;;
13171;SDS011;6651;53.200;10.432;2024-02-21T07:31:25;13.05;;;11.00;;
13171;SDS011;6651;53.200;10.432;2024-02-21T07:33:51;13.10;;;11.27;;
13171;SDS011;6651;53.200;10.432;2024-02-21T07:36:27;12.73;;;11.00;;
13171;SDS011;6651;53.200;10.432;2024-02-21T07:38:54;13.18;;;10.98;;
13171;SDS011;6651;53.200;10.432;2024-02-21T07:41:20;12.65;;;10.45;;
13171;SDS011;6651;53.200;10.432;2024-02-21T07:43:46;12.30;;;10.32;;
13171;SDS011;6651;53.200;10.432;2024-02-21T07:46:13;12.60;;;10.10;;
13171;SDS011;6651;53.200;10.432;2024-02-21T07:48:39;12.15;;;10.02;;
13171;SDS011;6651;53.200;10.432;2024-02-21T07:51:05;13.35;;;10.68;;
13171;SDS011;6651;53.200;10.432;2024-02-21T07:53:31;12.32;;;9.85;;
13171;SDS011;6651;53.200;10.432;2024-02-21T07:55:57;12.52;;;10.40;;
13171;SDS011;6651;53.200;10.432;2024-02-21T07:58:23;12.77;;;10.05;;
13171;SDS011;6651;53.200;10.432;2024-02-21T08:00:49;11.82;;;10.20;;
13171;SDS011;6651;53.200;10.432;2024-02-21T08:03:15;13.45;;;9.95;;
13171;SDS011;6651;53.200;10.432;2024-02-21T08:05:42;13.82;;;10.05;;
13171;SDS011;6651;53.200;10.432;2024-02-21T08:08:08;12.18;;;10.68;;
13171;SDS011;6651;53.200;10.432;2024-02-21T08:10:35;12.50;;;9.60;;
13171;SDS011;6651;53.200;10.432;2024-02-21T08:13:01;11.18;;;9.65;;
13171;SDS011;6651;53.200;10.432;2024-02-21T08:15:27;11.35;;;9.80;;
13171;SDS011;6651;53.200;10.432;2024-02-21T08:17:56;12.57;;;10.60;;
13171;SDS011;6651;53.200;10.432;2024-02-21T08:20:24;13.07;;;10.73;;
13171;SDS011;6651;53.200;10.432;2024-02-21T08:22:51;14.27;;;10.32;;
13171;SDS011;6651;53.200;10.432;2024-02-21T08:25:17;12.43;;;10.10;;
13171;SDS011;6651;53.200;10.432;2024-02-21T08:27:43;11.63;;;10.02;;
13171;SDS011;6651;53.200;10.432;2024-02-21T08:30:10;12.18;;;9.77;;
13171;SDS011;6651;53.200;10.432;2024-02-21T08:32:36;13.07;;;10.25;;
13171;SDS011;6651;53.200;10.432;2024-02-21T08:35:02;12.75;;;10.63;;
13171;SDS011;6651;53.200;10.432;2024-02-21T08:37:30;12.90;;;9.98;;
13171;SDS011;6651;53.200;10.432;2024-02-21T08:39:56;12.38;;;9.45;;
13171;SDS011;6651;53.200;10.432;2024-02-21T08:42:22;11.32;;;9.30;;
13171;SDS011;6651;53.200;10.432;2024-02-21T08:44:48;11.07;;;8.77;;
13171;SDS011;6651;53.200;10.432;2024-02-21T08:47:14;11.65;;;9.63;;
13171;SDS011;6651;53.200;10.432;2024-02-21T08:49:40;12.13;;;9.40;;
13171;SDS011;6651;53.200;10.432;2024-02-21T08:52:07;10.20;;;8.98;;
13171;SDS011;6651;53.200;10.432;2024-02-21T08:54:33;10.60;;;9.07;;
13171;SDS011;6651;53.200;10.432;2024-02-21T08:56:59;9.63;;;8.20;;
13171;SDS011;6651;53.200;10.432;2024-02-21T08:59:25;10.00;;;8.68;;
13171;SDS011;6651;53.200;10.432;2024-02-21T09:01:51;9.85;;;8.50;;
13171;SDS011;6651;53.200;10.432;2024-02-21T09:04:20;9.93;;;7.80;;
13171;SDS011;6651;53.200;10.432;2024-02-21T09:06:46;10.35;;;7.97;;
13171;SDS011;6651;53.200;10.432;2024-02-21T09:09:12;11.77;;;8.07;;
13171;SDS011;6651;53.200;10.432;2024-02-21T09:11:38;10.15;;;7.60;;
13171;SDS011;6651;53.200;10.432;2024-02-21T09:14:05;11.02;;;7.85;;
13171;SDS011;6651;53.200;10.432;2024-02-21T09:16:32;9.63;;;7.90;;
13171;SDS011;6651;53.200;10.432;2024-02-21T09:18:58;9.52;;;7.97;;
13171;SDS011;6651;53.200;10.432;2024-02-21T09:21:24;10.63;;;8.00;;
13171;SDS011;6651;53.200;10.432;2024-02-21T09:23:50;11.45;;;8.32;;
13171;SDS011;6651;53.200;10.432;2024-02-21T09:26:16;9.98;;;8.75;;
13171;SDS011;6651;53.200;10.432;2024-02-21T09:28:42;9.93;;;8.50;;
13171;SDS011;6651;53.200;10.432;2024-02-21T09:31:12;9.95;;;8.80;;
13171;SDS011;6651;53.200;10.432;2024-02-21T09:33:38;11.07;;;8.77;;
13171;SDS011;6651;53.200;10.432;2024-02-21T09:36:04;10.60;;;9.50;;
13171;SDS011;6651;53.200;10.432;2024-02-21T09:38:31;11.85;;;10.00;;
13171;SDS011;6651;53.200;10.432;2024-02-21T09:41:04;11.63;;;9.52;;
13171;SDS011;6651;53.200;10.432;2024-02-21T09:43:32;11.32;;;9.30;;
13171;SDS011;6651;53.200;10.432;2024-02-21T09:45:59;13.38;;;10.95;;
13171;SDS011;6651;53.200;10.432;2024-02-21T09:51:01;12.95;;;10.95;;
13171;SDS011;6651;53.200;10.432;2024-02-21T09:53:28;16.10;;;12.10;;
13171;SDS011;6651;53.200;10.432;2024-02-21T09:55:55;13.93;;;12.43;;
13171;SDS011;6651;53.200;10.432;2024-02-21T09:58:23;15.68;;;12.65;;
13171;SDS011;6651;53.200;10.432;2024-02-21T10:00:51;16.25;;;13.23;;
13171;SDS011;6651;53.200;10.432;2024-02-21T10:03:17;16.15;;;13.70;;
13171;SDS011;6651;53.200;10.432;2024-02-21T10:05:46;16.63;;;14.77;;
13171;SDS011;6651;53.200;10.432;2024-02-21T10:08:14;19.52;;;14.30;;
13171;SDS011;6651;53.200;10.432;2024-02-21T10:10:44;18.20;;;14.27;;
13171;SDS011;6651;53.200;10.432;2024-02-21T10:13:11;19.20;;;14.35;;
13171;SDS011;6651;53.200;10.432;2024-02-21T10:15:49;20.65;;;15.10;;
13171;SDS011;6651;53.200;10.432;2024-02-21T10:18:15;19.40;;;15.55;;
13171;SDS011;6651;53.200;10.432;2024-02-21T10:20:43;19.95;;;15.98;;
13171;SDS011;6651;53.200;10.432;2024-02-21T10:23:10;20.85;;;15.30;;
13171;SDS011;6651;53.200;10.432;2024-02-21T10:25:36;19.58;;;16.60;;
13171;SDS011;6651;53.200;10.432;2024-02-21T10:28:13;23.33;;;16.85;;
13171;SDS011;6651;53.200;10.432;2024-02-21T10:30:51;18.75;;;15.30;;
13171;SDS011;6651;53.200;10.432;2024-02-21T10:33:17;21.67;;;15.48;;
13171;SDS011;6651;53.200;10.432;2024-02-21T10:35:46;20.88;;;16.38;;
13171;SDS011;6651;53.200;10.432;2024-02-21T10:38:12;20.40;;;15.20;;
13171;SDS011;6651;53.200;10.432;2024-02-21T10:40:38;21.38;;;14.75;;
13171;SDS011;6651;53.200;10.432;2024-02-21T10:43:04;20.63;;;14.85;;
13171;SDS011;6651;53.200;10.432;2024-02-21T10:45:34;20.50;;;14.48;;
13171;SDS011;6651;53.200;10.432;2024-02-21T10:48:22;20.85;;;13.98;;
13171;SDS011;6651;53.200;10.432;2024-02-21T10:58:34;18.52;;;13.15;;
13171;SDS011;6651;53.200;10.432;2024-02-21T11:01:00;15.63;;;11.65;;
13171;SDS011;6651;53.200;10.432;2024-02-21T11:03:28;14.93;;;11.25;;
13171;SDS011;6651;53.200;10.432;2024-02-21T11:05:54;15.38;;;11.38;;
13171;SDS011;6651;53.200;10.432;2024-02-21T11:08:20;15.38;;;11.15;;
13171;SDS011;6651;53.200;10.432;2024-02-21T11:10:46;17.00;;;11.38;;
13171;SDS011;6651;53.200;10.432;2024-02-21T11:13:12;15.77;;;12.52;;
13171;SDS011;6651;53.200;10.432;2024-02-21T11:15:39;15.70;;;12.40;;
13171;SDS011;6651;53.200;10.432;2024-02-21T11:18:05;15.13;;;11.80;;
13171;SDS011;6651;53.200;10.432;2024-02-21T11:20:31;15.40;;;12.20;;
13171;SDS011;6651;53.200;10.432;2024-02-21T11:22:58;20.45;;;12.35;;
13171;SDS011;6651;53.200;10.432;2024-02-21T11:25:26;16.48;;;12.48;;
13171;SDS011;6651;53.200;10.432;2024-02-21T11:28:02;18.17;;;12.73;;
13171;SDS011;6651;53.200;10.432;2024-02-21T11:30:31;17.98;;;12.82;;
13171;SDS011;6651;53.200;10.432;2024-02-21T11:32:59;18.50;;;12.98;;
13171;SDS011;6651;53.200;10.432;2024-02-21T11:35:26;18.00;;;13.45;;
13171;SDS011;6651;53.200;10.432;2024-02-21T11:37:56;16.30;;;13.55;;
13171;SDS011;6651;53.200;10.432;2024-02-21T11:40:22;19.27;;;14.35;;
13171;SDS011;6651;53.200;10.432;2024-02-21T11:42:48;15.75;;;14.02;;
13171;SDS011;6651;53.200;10.432;2024-02-21T11:45:14;17.65;;;14.40;;
13171;SDS011;6651;53.200;10.432;2024-02-21T11:47:42;17.33;;;14.68;;
13171;SDS011;6651;53.200;10.432;2024-02-21T11:50:11;20.58;;;14.95;;
13171;SDS011;6651;53.200;10.432;2024-02-21T11:52:37;19.55;;;14.00;;
13171;SDS011;6651;53.200;10.432;2024-02-21T11:55:03;17.63;;;14.88;;
13171;SDS011;6651;53.200;10.432;2024-02-21T11:57:29;23.10;;;15.40;;
13171;SDS011;6651;53.200;10.432;2024-02-21T11:59:56;19.77;;;15.70;;
13171;SDS011;6651;53.200;10.432;2024-02-21T12:02:22;20.02;;;15.48;;
13171;SDS011;6651;53.200;10.432;2024-02-21T12:04:48;19.70;;;15.80;;
13171;SDS011;6651;53.200;10.432;2024-02-21T12:07:14;21.23;;;16.05;;
13171;SDS011;6651;53.200;10.432;2024-02-21T12:09:41;21.45;;;15.40;;
13171;SDS011;6651;53.200;10.432;2024-02-21T12:12:07;18.67;;;15.43;;
13171;SDS011;6651;53.200;10.432;2024-02-21T12:14:34;21.42;;;14.85;;
13171;SDS011;6651;53.200;10.432;2024-02-21T12:17:01;17.33;;;13.82;;
13171;SDS011;6651;53.200;10.432;2024-02-21T12:19:29;17.80;;;14.38;;
13171;SDS011;6651;53.200;10.432;2024-02-21T12:21:56;17.70;;;14.15;;
13171;SDS011;6651;53.200;10.432;2024-02-21T12:26:52;18.85;;;13.82;;
13171;SDS011;6651;53.200;10.432;2024-02-21T12:29:19;15.98;;;13.30;;
13171;SDS011;6651;53.200;10.432;2024-02-21T12:31:45;16.33;;;12.88;;
13171;SDS011;6651;53.200;10.432;2024-02-21T12:34:11;16.30;;;13.40;;
13171;SDS011;6651;53.200;10.432;2024-02-21T12:36:41;18.55;;;13.20;;
13171;SDS011;6651;53.200;10.432;2024-02-21T12:39:11;17.33;;;12.10;;
13171;SDS011;6651;53.200;10.432;2024-02-21T12:41:37;18.10;;;11.38;;
13171;SDS011;6651;53.200;10.432;2024-02-21T12:44:04;18.45;;;11.35;;
13171;SDS011;6651;53.200;10.432;2024-02-21T12:46:34;14.85;;;11.23;;
13171;SDS011;6651;53.200;10.432;2024-02-21T12:49:00;14.02;;;10.43;;
13171;SDS011;6651;53.200;10.432;2024-02-21T12:51:26;17.30;;;10.38;;
13171;SDS011;6651;53.200;10.432;2024-02-21T12:53:52;13.18;;;9.32;;
13171;SDS011;6651;53.200;10.432;2024-02-21T12:56:18;15.40;;;10.00;;
13171;SDS011;6651;53.200;10.432;2024-02-21T12:58:44;14.20;;;8.93;;
13171;SDS011;6651;53.200;10.432;2024-02-21T13:01:10;11.88;;;9.25;;
13171;SDS011;6651;53.200;10.432;2024-02-21T13:03:36;13.05;;;8.82;;
13171;SDS011;6651;53.200;10.432;2024-02-21T13:06:03;14.02;;;8.63;;
13171;SDS011;6651;53.200;10.432;2024-02-21T13:08:29;11.70;;;8.00;;
13171;SDS011;6651;53.200;10.432;2024-02-21T13:10:55;12.05;;;7.95;;
13171;SDS011;6651;53.200;10.432;2024-02-21T13:13:21;13.77;;;8.20;;
13171;SDS011;6651;53.200;10.432;2024-02-21T13:15:47;13.48;;;8.95;;
13171;SDS011;6651;53.200;10.432;2024-02-21T13:18:13;11.07;;;7.85;;
13171;SDS011;6651;53.200;10.432;2024-02-21T13:20:39;11.70;;;7.28;;
13171;SDS011;6651;53.200;10.432;2024-02-21T13:23:05;11.30;;;7.45;;
13171;SDS011;6651;53.200;10.432;2024-02-21T13:25:31;12.13;;;7.95;;
13171;SDS011;6651;53.200;10.432;2024-02-21T13:27:57;9.88;;;6.95;;
13171;SDS011;6651;53.200;10.432;2024-02-21T13:30:23;11.60;;;7.50;;
13171;SDS011;6651;53.200;10.432;2024-02-21T13:32:50;12.07;;;7.35;;
13171;SDS011;6651;53.200;10.432;2024-02-21T13:35:16;11.18;;;6.68;;
13171;SDS011;6651;53.200;10.432;2024-02-21T13:37:43;10.60;;;6.53;;
13171;SDS011;6651;53.200;10.432;2024-02-21T13:40:09;9.20;;;6.30;;
13171;SDS011;6651;53.200;10.432;2024-02-21T13:42:36;8.45;;;6.28;;
13171;SDS011;6651;53.200;10.432;2024-02-21T13:45:03;12.35;;;6.68;;
13171;SDS011;6651;53.200;10.432;2024-02-21T13:47:30;9.30;;;5.97;;
13171;SDS011;6651;53.200;10.432;2024-02-21T13:49:56;7.88;;;5.30;;
13171;SDS011;6651;53.200;10.432;2024-02-21T13:52:22;9.95;;;5.85;;
13171;SDS011;6651;53.200;10.432;2024-02-21T13:54:51;9.88;;;5.85;;
13171;SDS011;6651;53.200;10.432;2024-02-21T13:57:17;10.55;;;5.25;;
13171;SDS011;6651;53.200;10.432;2024-02-21T13:59:43;10.63;;;5.70;;
13171;SDS011;6651;53.200;10.432;2024-02-21T14:02:09;8.27;;;4.93;;
13171;SDS011;6651;53.200;10.432;2024-02-21T14:04:35;8.05;;;4.93;;
13171;SDS011;6651;53.200;10.432;2024-02-21T14:07:01;7.10;;;4.45;;
13171;SDS011;6651;53.200;10.432;2024-02-21T14:09:27;10.13;;;5.00;;
13171;SDS011;6651;53.200;10.432;2024-02-21T14:11:58;9.85;;;4.20;;
13171;SDS011;6651;53.200;10.432;2024-02-21T14:14:24;8.90;;;4.70;;
13171;SDS011;6651;53.200;10.432;2024-02-21T14:16:50;8.93;;;4.45;;
13171;SDS011;6651;53.200;10.432;2024-02-21T14:19:16;7.13;;;3.97;;
13171;SDS011;6651;53.200;10.432;2024-02-21T14:21:43;7.97;;;4.00;;
13171;SDS011;6651;53.200;10.432;2024-02-21T14:24:09;7.72;;;3.78;;
13171;SDS011;6651;53.200;10.432;2024-02-21T14:26:36;10.18;;;3.95;;
13171;SDS011;6651;53.200;10.432;2024-02-21T14:29:02;7.93;;;3.80;;
13171;SDS011;6651;53.200;10.432;2024-02-21T14:31:29;8.98;;;4.05;;
13171;SDS011;6651;53.200;10.432;2024-02-21T14:33:57;9.02;;;3.70;;
13171;SDS011;6651;53.200;10.432;2024-02-21T14:36:23;5.72;;;3.40;;